sensor_id;sensor_type;location;lat;lon;timestamp;P1;durP1;ratioP1;P2;durP2;ratioP2
37645;SDS011;23489;49.600;6.138;2023-04-25T00:02:00;13.15;;;9.38;;
37645;SDS011;23489;49.600;6.138;2023-04-25T00:04:26;13.35;;;9.95;;
37645;SDS011;23489;49.600;6.138;2023-04-25T00:06:52;13.88;;;9.38;;
37645;SDS011;23489;49.600;6.138;2023-04-25T00:11:44;6.40;;;4.13;;
37645;SDS011;23489;49.600;6.138;2023-04-25T00:23:53;4.22;;;3.25;;
37645;SDS011;23489;49.600;6.138;2023-04-25T00:26:19;4.88;;;3.40;;
37645;SDS011;23489;49.600;6.138;2023-04-25T00:28:46;7.40;;;3.25;;
37645;SDS011;23489;49.600;6.138;2023-04-25T00:31:12;4.50;;;3.30;;
37645;SDS011;23489;49.600;6.138;2023-04-25T00:33:38;5.45;;;3.45;;
37645;SDS011;23489;49.600;6.138;2023-04-25T00:36:04;4.55;;;3.70;;
37645;SDS011;23489;49.600;6.138;2023-04-25T00:38:30;4.28;;;3.45;;
37645;SDS011;23489;49.600;6.138;2023-04-25T00:40:55;3.72;;;3.35;;
37645;SDS011;23489;49.600;6.138;2023-04-25T00:43:26;5.80;;;3.25;;
37645;SDS011;23489;49.600;6.138;2023-04-25T00:45:55;4.10;;;3.40;;
37645;SDS011;23489;49.600;6.138;2023-04-25T00:48:22;4.53;;;3.33;;
37645;SDS011;23489;49.600;6.138;2023-04-25T00:50:51;3.92;;;3.08;;
37645;SDS011;23489;49.600;6.138;2023-04-25T00:53:19;3.63;;;3.33;;
37645;SDS011;23489;49.600;6.138;2023-04-25T00:55:49;3.83;;;3.42;;
37645;SDS011;23489;49.600;6.138;2023-04-25T00:58:18;4.13;;;3.38;;
37645;SDS011;23489;49.600;6.138;2023-04-25T01:00:45;4.30;;;3.10;;
37645;SDS011;23489;49.600;6.138;2023-04-25T01:03:12;4.22;;;3.50;;
37645;SDS011;23489;49.600;6.138;2023-04-25T01:05:39;3.75;;;3.00;;
37645;SDS011;23489;49.600;6.138;2023-04-25T01:08:06;3.72;;;3.28;;
37645;SDS011;23489;49.600;6.138;2023-04-25T01:10:32;4.05;;;3.33;;
37645;SDS011;23489;49.600;6.138;2023-04-25T01:12:57;4.13;;;3.70;;
37645;SDS011;23489;49.600;6.138;2023-04-25T01:15:24;3.83;;;3.22;;
37645;SDS011;23489;49.600;6.138;2023-04-25T01:17:49;3.25;;;2.85;;
37645;SDS011;23489;49.600;6.138;2023-04-25T01:20:15;3.10;;;2.80;;
37645;SDS011;23489;49.600;6.138;2023-04-25T01:22:42;3.53;;;2.70;;
37645;SDS011;23489;49.600;6.138;2023-04-25T01:25:08;3.33;;;3.00;;
37645;SDS011;23489;49.600;6.138;2023-04-25T01:27:35;3.30;;;2.58;;
37645;SDS011;23489;49.600;6.138;2023-04-25T01:30:02;3.60;;;3.05;;
37645;SDS011;23489;49.600;6.138;2023-04-25T01:32:29;3.25;;;2.90;;
37645;SDS011;23489;49.600;6.138;2023-04-25T01:35:03;4.18;;;3.40;;
37645;SDS011;23489;49.600;6.138;2023-04-25T01:37:34;3.70;;;3.30;;
37645;SDS011;23489;49.600;6.138;2023-04-25T01:40:03;3.83;;;3.08;;
37645;SDS011;23489;49.600;6.138;2023-04-25T01:42:31;4.15;;;3.50;;
37645;SDS011;23489;49.600;6.138;2023-04-25T01:44:57;4.53;;;3.22;;
37645;SDS011;23489;49.600;6.138;2023-04-25T01:47:23;4.00;;;3.50;;
37645;SDS011;23489;49.600;6.138;2023-04-25T01:49:49;3.83;;;3.30;;
37645;SDS011;23489;49.600;6.138;2023-04-25T01:52:15;4.70;;;3.70;;
37645;SDS011;23489;49.600;6.138;2023-04-25T01:54:41;4.13;;;3.72;;
37645;SDS011;23489;49.600;6.138;2023-04-25T01:57:10;4.43;;;3.90;;
37645;SDS011;23489;49.600;6.138;2023-04-25T01:59:38;5.78;;;4.72;;
37645;SDS011;23489;49.600;6.138;2023-04-25T02:02:40;6.70;;;5.22;;
37645;SDS011;23489;49.600;6.138;2023-04-25T02:05:19;7.80;;;5.60;;
37645;SDS011;23489;49.600;6.138;2023-04-25T02:07:47;11.35;;;6.35;;
37645;SDS011;23489;49.600;6.138;2023-04-25T02:10:13;7.80;;;6.20;;
37645;SDS011;23489;49.600;6.138;2023-04-25T02:12:51;9.40;;;5.95;;
37645;SDS011;23489;49.600;6.138;2023-04-25T02:15:23;8.75;;;6.30;;
37645;SDS011;23489;49.600;6.138;2023-04-25T02:17:55;10.73;;;6.80;;
37645;SDS011;23489;49.600;6.138;2023-04-25T02:20:22;9.45;;;6.55;;
37645;SDS011;23489;49.600;6.138;2023-04-25T02:22:48;9.43;;;6.78;;
37645;SDS011;23489;49.600;6.138;2023-04-25T02:25:14;9.23;;;6.95;;
37645;SDS011;23489;49.600;6.138;2023-04-25T02:27:41;10.38;;;6.53;;
37645;SDS011;23489;49.600;6.138;2023-04-25T02:30:07;9.35;;;6.40;;
37645;SDS011;23489;49.600;6.138;2023-04-25T02:32:33;9.98;;;6.20;;
37645;SDS011;23489;49.600;6.138;2023-04-25T02:34:59;8.57;;;6.63;;
37645;SDS011;23489;49.600;6.138;2023-04-25T02:37:29;8.38;;;6.22;;
37645;SDS011;23489;49.600;6.138;2023-04-25T02:39:55;8.10;;;5.93;;
37645;SDS011;23489;49.600;6.138;2023-04-25T02:42:21;11.07;;;6.40;;
37645;SDS011;23489;49.600;6.138;2023-04-25T02:44:47;7.50;;;5.80;;
37645;SDS011;23489;49.600;6.138;2023-04-25T02:47:12;8.85;;;6.05;;
37645;SDS011;23489;49.600;6.138;2023-04-25T02:49:38;7.75;;;5.10;;
37645;SDS011;23489;49.600;6.138;2023-04-25T02:52:03;6.72;;;5.25;;
37645;SDS011;23489;49.600;6.138;2023-04-25T02:54:30;7.90;;;5.63;;
37645;SDS011;23489;49.600;6.138;2023-04-25T02:56:57;7.40;;;5.40;;
37645;SDS011;23489;49.600;6.138;2023-04-25T02:59:28;6.32;;;4.88;;
37645;SDS011;23489;49.600;6.138;2023-04-25T03:01:54;6.63;;;4.22;;
37645;SDS011;23489;49.600;6.138;2023-04-25T03:04:20;5.32;;;4.35;;
37645;SDS011;23489;49.600;6.138;2023-04-25T03:06:49;4.32;;;3.60;;
37645;SDS011;23489;49.600;6.138;2023-04-25T03:09:19;4.80;;;3.75;;
37645;SDS011;23489;49.600;6.138;2023-04-25T03:11:45;6.22;;;4.05;;
37645;SDS011;23489;49.600;6.138;2023-04-25T03:14:12;5.43;;;4.03;;
37645;SDS011;23489;49.600;6.138;2023-04-25T03:16:38;4.85;;;3.97;;
37645;SDS011;23489;49.600;6.138;2023-04-25T03:19:04;5.78;;;4.68;;
37645;SDS011;23489;49.600;6.138;2023-04-25T03:21:31;5.95;;;4.47;;
37645;SDS011;23489;49.600;6.138;2023-04-25T03:23:58;5.38;;;4.38;;
37645;SDS011;23489;49.600;6.138;2023-04-25T03:26:25;8.85;;;5.47;;
37645;SDS011;23489;49.600;6.138;2023-04-25T03:28:51;8.40;;;6.53;;
37645;SDS011;23489;49.600;6.138;2023-04-25T03:31:17;9.57;;;6.15;;
37645;SDS011;23489;49.600;6.138;2023-04-25T03:33:42;7.85;;;6.35;;
37645;SDS011;23489;49.600;6.138;2023-04-25T03:36:08;8.73;;;6.38;;
37645;SDS011;23489;49.600;6.138;2023-04-25T03:38:35;9.68;;;6.57;;
37645;SDS011;23489;49.600;6.138;2023-04-25T03:41:02;9.55;;;6.72;;
37645;SDS011;23489;49.600;6.138;2023-04-25T03:43:56;10.18;;;7.05;;
37645;SDS011;23489;49.600;6.138;2023-04-25T03:46:22;11.25;;;7.97;;
37645;SDS011;23489;49.600;6.138;2023-04-25T03:48:48;11.00;;;7.35;;
37645;SDS011;23489;49.600;6.138;2023-04-25T03:51:20;12.23;;;7.47;;
37645;SDS011;23489;49.600;6.138;2023-04-25T03:53:47;13.52;;;8.65;;
37645;SDS011;23489;49.600;6.138;2023-04-25T04:08:31;10.80;;;7.10;;
37645;SDS011;23489;49.600;6.138;2023-04-25T04:10:57;11.55;;;8.20;;
37645;SDS011;23489;49.600;6.138;2023-04-25T04:13:28;11.63;;;8.27;;
37645;SDS011;23489;49.600;6.138;2023-04-25T04:15:55;13.07;;;8.45;;
37645;SDS011;23489;49.600;6.138;2023-04-25T04:18:21;14.13;;;9.38;;
37645;SDS011;23489;49.600;6.138;2023-04-25T04:20:48;14.02;;;8.45;;
37645;SDS011;23489;49.600;6.138;2023-04-25T04:23:13;15.38;;;9.32;;
37645;SDS011;23489;49.600;6.138;2023-04-25T04:25:39;12.35;;;9.10;;
37645;SDS011;23489;49.600;6.138;2023-04-25T04:28:05;12.60;;;8.73;;
37645;SDS011;23489;49.600;6.138;2023-04-25T04:30:41;12.57;;;8.43;;
37645;SDS011;23489;49.600;6.138;2023-04-25T04:33:08;12.30;;;8.93;;
37645;SDS011;23489;49.600;6.138;2023-04-25T04:35:34;14.88;;;9.52;;
37645;SDS011;23489;49.600;6.138;2023-04-25T04:38:00;13.13;;;9.27;;
37645;SDS011;23489;49.600;6.138;2023-04-25T04:40:30;13.75;;;8.68;;
37645;SDS011;23489;49.600;6.138;2023-04-25T04:43:11;12.68;;;9.13;;
37645;SDS011;23489;49.600;6.138;2023-04-25T04:45:55;14.60;;;9.73;;
37645;SDS011;23489;49.600;6.138;2023-04-25T04:48:53;12.98;;;9.18;;
37645;SDS011;23489;49.600;6.138;2023-04-25T04:51:37;14.82;;;8.77;;
37645;SDS011;23489;49.600;6.138;2023-04-25T04:54:29;12.90;;;8.45;;
37645;SDS011;23489;49.600;6.138;2023-04-25T04:57:13;11.75;;;8.70;;
37645;SDS011;23489;49.600;6.138;2023-04-25T04:59:51;13.00;;;8.73;;
37645;SDS011;23489;49.600;6.138;2023-04-25T05:02:38;14.43;;;10.93;;
37645;SDS011;23489;49.600;6.138;2023-04-25T05:05:23;14.13;;;9.75;;
37645;SDS011;23489;49.600;6.138;2023-04-25T05:08:09;13.48;;;8.90;;
37645;SDS011;23489;49.600;6.138;2023-04-25T05:11:01;12.25;;;9.18;;
37645;SDS011;23489;49.600;6.138;2023-04-25T05:13:36;16.38;;;8.35;;
37645;SDS011;23489;49.600;6.138;2023-04-25T05:16:12;12.45;;;8.85;;
37645;SDS011;23489;49.600;6.138;2023-04-25T05:18:54;12.68;;;8.35;;
37645;SDS011;23489;49.600;6.138;2023-04-25T05:21:29;12.25;;;8.65;;
37645;SDS011;23489;49.600;6.138;2023-04-25T05:24:28;12.65;;;8.30;;
37645;SDS011;23489;49.600;6.138;2023-04-25T05:27:00;11.95;;;8.07;;
37645;SDS011;23489;49.600;6.138;2023-04-25T05:29:39;10.70;;;7.30;;
37645;SDS011;23489;49.600;6.138;2023-04-25T05:32:21;10.30;;;7.55;;
37645;SDS011;23489;49.600;6.138;2023-04-25T05:34:48;10.15;;;7.78;;
37645;SDS011;23489;49.600;6.138;2023-04-25T05:37:30;11.13;;;8.05;;
37645;SDS011;23489;49.600;6.138;2023-04-25T05:40:07;9.88;;;7.03;;
37645;SDS011;23489;49.600;6.138;2023-04-25T05:42:42;9.23;;;6.85;;
37645;SDS011;23489;49.600;6.138;2023-04-25T05:45:17;10.50;;;6.70;;
37645;SDS011;23489;49.600;6.138;2023-04-25T05:48:01;8.35;;;5.80;;
37645;SDS011;23489;49.600;6.138;2023-04-25T05:50:42;8.52;;;6.22;;
37645;SDS011;23489;49.600;6.138;2023-04-25T05:53:20;7.97;;;5.82;;
37645;SDS011;23489;49.600;6.138;2023-04-25T05:55:52;7.03;;;5.15;;
37645;SDS011;23489;49.600;6.138;2023-04-25T05:58:23;9.15;;;5.50;;
37645;SDS011;23489;49.600;6.138;2023-04-25T06:00:49;7.80;;;4.95;;
37645;SDS011;23489;49.600;6.138;2023-04-25T06:03:16;9.32;;;6.22;;
37645;SDS011;23489;49.600;6.138;2023-04-25T06:05:44;10.73;;;5.93;;
37645;SDS011;23489;49.600;6.138;2023-04-25T06:08:13;7.00;;;5.30;;
37645;SDS011;23489;49.600;6.138;2023-04-25T06:10:38;7.00;;;5.70;;
37645;SDS011;23489;49.600;6.138;2023-04-25T06:13:04;13.55;;;6.68;;
37645;SDS011;23489;49.600;6.138;2023-04-25T06:15:32;9.65;;;6.45;;
37645;SDS011;23489;49.600;6.138;2023-04-25T06:17:59;9.25;;;6.50;;
37645;SDS011;23489;49.600;6.138;2023-04-25T06:20:25;13.48;;;6.35;;
37645;SDS011;23489;49.600;6.138;2023-04-25T06:22:53;9.60;;;6.45;;
37645;SDS011;23489;49.600;6.138;2023-04-25T06:25:21;9.77;;;6.82;;
37645;SDS011;23489;49.600;6.138;2023-04-25T06:27:46;10.23;;;6.38;;
37645;SDS011;23489;49.600;6.138;2023-04-25T06:30:12;13.52;;;7.55;;
37645;SDS011;23489;49.600;6.138;2023-04-25T06:32:38;13.20;;;7.15;;
37645;SDS011;23489;49.600;6.138;2023-04-25T06:35:04;16.08;;;7.95;;
37645;SDS011;23489;49.600;6.138;2023-04-25T06:37:32;11.15;;;6.95;;
37645;SDS011;23489;49.600;6.138;2023-04-25T06:39:57;13.50;;;9.35;;
37645;SDS011;23489;49.600;6.138;2023-04-25T06:42:23;11.40;;;7.85;;
37645;SDS011;23489;49.600;6.138;2023-04-25T06:44:56;11.57;;;6.25;;
37645;SDS011;23489;49.600;6.138;2023-04-25T06:47:22;10.40;;;6.28;;
37645;SDS011;23489;49.600;6.138;2023-04-25T06:49:49;11.55;;;6.63;;
37645;SDS011;23489;49.600;6.138;2023-04-25T06:52:15;10.90;;;6.75;;
37645;SDS011;23489;49.600;6.138;2023-04-25T06:54:43;8.85;;;6.35;;
37645;SDS011;23489;49.600;6.138;2023-04-25T06:57:25;9.68;;;5.60;;
37645;SDS011;23489;49.600;6.138;2023-04-25T06:59:52;11.57;;;6.53;;
37645;SDS011;23489;49.600;6.138;2023-04-25T07:02:17;8.50;;;5.78;;
37645;SDS011;23489;49.600;6.138;2023-04-25T07:04:43;9.05;;;6.22;;
37645;SDS011;23489;49.600;6.138;2023-04-25T07:07:11;11.90;;;7.25;;
37645;SDS011;23489;49.600;6.138;2023-04-25T07:09:45;11.05;;;6.63;;
37645;SDS011;23489;49.600;6.138;2023-04-25T07:12:11;8.25;;;5.60;;
37645;SDS011;23489;49.600;6.138;2023-04-25T07:14:37;9.10;;;5.82;;
37645;SDS011;23489;49.600;6.138;2023-04-25T07:17:03;9.27;;;6.40;;
37645;SDS011;23489;49.600;6.138;2023-04-25T07:19:32;9.65;;;5.80;;
37645;SDS011;23489;49.600;6.138;2023-04-25T07:22:00;8.27;;;5.75;;
37645;SDS011;23489;49.600;6.138;2023-04-25T07:24:26;9.07;;;6.60;;
37645;SDS011;23489;49.600;6.138;2023-04-25T07:26:53;10.40;;;5.95;;
37645;SDS011;23489;49.600;6.138;2023-04-25T07:29:28;15.25;;;6.75;;
37645;SDS011;23489;49.600;6.138;2023-04-25T07:31:57;9.57;;;5.60;;
37645;SDS011;23489;49.600;6.138;2023-04-25T07:34:23;10.82;;;6.53;;
37645;SDS011;23489;49.600;6.138;2023-04-25T07:36:50;10.57;;;6.03;;
37645;SDS011;23489;49.600;6.138;2023-04-25T07:39:16;11.77;;;6.25;;
37645;SDS011;23489;49.600;6.138;2023-04-25T07:41:42;19.27;;;7.18;;
37645;SDS011;23489;49.600;6.138;2023-04-25T07:44:13;13.73;;;5.97;;
37645;SDS011;23489;49.600;6.138;2023-04-25T07:46:39;18.75;;;8.65;;
37645;SDS011;23489;49.600;6.138;2023-04-25T07:49:06;14.88;;;7.63;;
37645;SDS011;23489;49.600;6.138;2023-04-25T07:51:31;11.73;;;5.85;;
37645;SDS011;23489;49.600;6.138;2023-04-25T07:54:03;11.18;;;5.68;;
37645;SDS011;23489;49.600;6.138;2023-04-25T07:56:32;11.52;;;6.20;;
37645;SDS011;23489;49.600;6.138;2023-04-25T07:58:57;12.50;;;5.78;;
37645;SDS011;23489;49.600;6.138;2023-04-25T08:01:23;8.73;;;6.00;;
37645;SDS011;23489;49.600;6.138;2023-04-25T08:03:56;10.65;;;5.93;;
37645;SDS011;23489;49.600;6.138;2023-04-25T08:06:50;10.63;;;5.43;;
37645;SDS011;23489;49.600;6.138;2023-04-25T08:09:22;9.95;;;5.38;;
37645;SDS011;23489;49.600;6.138;2023-04-25T08:11:48;14.18;;;5.68;;
37645;SDS011;23489;49.600;6.138;2023-04-25T08:14:17;12.00;;;5.40;;
37645;SDS011;23489;49.600;6.138;2023-04-25T08:16:44;6.72;;;4.95;;
37645;SDS011;23489;49.600;6.138;2023-04-25T08:19:10;10.73;;;5.50;;
37645;SDS011;23489;49.600;6.138;2023-04-25T08:21:36;8.68;;;5.28;;
37645;SDS011;23489;49.600;6.138;2023-04-25T08:24:05;12.00;;;5.82;;
37645;SDS011;23489;49.600;6.138;2023-04-25T08:26:35;8.95;;;5.15;;
37645;SDS011;23489;49.600;6.138;2023-04-25T08:29:02;14.07;;;6.10;;
37645;SDS011;23489;49.600;6.138;2023-04-25T08:31:28;11.40;;;5.55;;
37645;SDS011;23489;49.600;6.138;2023-04-25T08:33:57;10.77;;;5.10;;
37645;SDS011;23489;49.600;6.138;2023-04-25T08:36:55;9.80;;;5.53;;
37645;SDS011;23489;49.600;6.138;2023-04-25T08:39:27;9.82;;;5.63;;
37645;SDS011;23489;49.600;6.138;2023-04-25T08:42:14;10.07;;;5.55;;
37645;SDS011;23489;49.600;6.138;2023-04-25T08:44:40;10.13;;;6.55;;
37645;SDS011;23489;49.600;6.138;2023-04-25T08:47:06;13.43;;;5.57;;
37645;SDS011;23489;49.600;6.138;2023-04-25T08:49:38;11.98;;;6.00;;
37645;SDS011;23489;49.600;6.138;2023-04-25T08:52:09;8.15;;;5.82;;
37645;SDS011;23489;49.600;6.138;2023-04-25T08:54:37;9.10;;;5.57;;
37645;SDS011;23489;49.600;6.138;2023-04-25T08:59:36;15.77;;;7.25;;
37645;SDS011;23489;49.600;6.138;2023-04-25T09:02:04;15.57;;;7.15;;
37645;SDS011;23489;49.600;6.138;2023-04-25T09:04:31;10.77;;;6.90;;
37645;SDS011;23489;49.600;6.138;2023-04-25T09:06:57;13.95;;;7.53;;
37645;SDS011;23489;49.600;6.138;2023-04-25T09:09:24;12.68;;;6.20;;
37645;SDS011;23489;49.600;6.138;2023-04-25T09:19:36;10.88;;;5.47;;
37645;SDS011;23489;49.600;6.138;2023-04-25T09:22:09;10.00;;;5.70;;
37645;SDS011;23489;49.600;6.138;2023-04-25T09:24:39;13.07;;;6.43;;
37645;SDS011;23489;49.600;6.138;2023-04-25T09:27:11;10.45;;;5.68;;
37645;SDS011;23489;49.600;6.138;2023-04-25T09:29:38;10.43;;;6.30;;
37645;SDS011;23489;49.600;6.138;2023-04-25T09:34:52;10.43;;;5.93;;
37645;SDS011;23489;49.600;6.138;2023-04-25T09:37:22;9.95;;;5.30;;
37645;SDS011;23489;49.600;6.138;2023-04-25T09:40:05;9.90;;;5.80;;
37645;SDS011;23489;49.600;6.138;2023-04-25T09:42:41;10.30;;;4.47;;
37645;SDS011;23489;49.600;6.138;2023-04-25T09:45:07;7.50;;;4.43;;
37645;SDS011;23489;49.600;6.138;2023-04-25T09:47:37;9.57;;;5.15;;
37645;SDS011;23489;49.600;6.138;2023-04-25T09:50:04;9.60;;;4.72;;
37645;SDS011;23489;49.600;6.138;2023-04-25T09:52:41;7.55;;;4.22;;
37645;SDS011;23489;49.600;6.138;2023-04-25T09:55:19;7.15;;;3.95;;
37645;SDS011;23489;49.600;6.138;2023-04-25T10:02:39;6.03;;;3.90;;
37645;SDS011;23489;49.600;6.138;2023-04-25T10:05:10;8.23;;;3.75;;
37645;SDS011;23489;49.600;6.138;2023-04-25T10:07:38;7.95;;;4.20;;
37645;SDS011;23489;49.600;6.138;2023-04-25T10:10:08;4.93;;;3.25;;
37645;SDS011;23489;49.600;6.138;2023-04-25T10:12:36;9.27;;;3.92;;
37645;SDS011;23489;49.600;6.138;2023-04-25T10:15:04;6.07;;;3.88;;
37645;SDS011;23489;49.600;6.138;2023-04-25T10:17:31;8.43;;;3.97;;
37645;SDS011;23489;49.600;6.138;2023-04-25T10:19:59;8.60;;;3.55;;
37645;SDS011;23489;49.600;6.138;2023-04-25T10:22:29;7.65;;;3.95;;
37645;SDS011;23489;49.600;6.138;2023-04-25T10:25:00;6.00;;;3.53;;
37645;SDS011;23489;49.600;6.138;2023-04-25T10:27:28;5.18;;;4.05;;
37645;SDS011;23489;49.600;6.138;2023-04-25T10:32:36;6.73;;;4.10;;
37645;SDS011;23489;49.600;6.138;2023-04-25T10:37:57;5.15;;;3.38;;
37645;SDS011;23489;49.600;6.138;2023-04-25T10:40:23;8.07;;;4.10;;
37645;SDS011;23489;49.600;6.138;2023-04-25T10:42:51;5.28;;;3.95;;
37645;SDS011;23489;49.600;6.138;2023-04-25T10:45:18;7.10;;;4.60;;
37645;SDS011;23489;49.600;6.138;2023-04-25T10:47:44;7.80;;;3.38;;
37645;SDS011;23489;49.600;6.138;2023-04-25T10:50:11;7.18;;;3.88;;
37645;SDS011;23489;49.600;6.138;2023-04-25T10:52:43;4.93;;;3.20;;
37645;SDS011;23489;49.600;6.138;2023-04-25T10:55:09;11.93;;;4.50;;
37645;SDS011;23489;49.600;6.138;2023-04-25T11:02:43;6.82;;;3.70;;
37645;SDS011;23489;49.600;6.138;2023-04-25T11:05:10;5.30;;;2.80;;
37645;SDS011;23489;49.600;6.138;2023-04-25T11:07:51;4.60;;;3.55;;
37645;SDS011;23489;49.600;6.138;2023-04-25T11:10:19;5.93;;;3.67;;
37645;SDS011;23489;49.600;6.138;2023-04-25T11:12:45;5.75;;;3.75;;
37645;SDS011;23489;49.600;6.138;2023-04-25T11:15:12;7.68;;;3.55;;
37645;SDS011;23489;49.600;6.138;2023-04-25T11:17:38;5.18;;;3.17;;
37645;SDS011;23489;49.600;6.138;2023-04-25T11:20:06;5.60;;;3.72;;
37645;SDS011;23489;49.600;6.138;2023-04-25T11:22:36;5.85;;;3.40;;
37645;SDS011;23489;49.600;6.138;2023-04-25T11:25:04;6.75;;;3.45;;
37645;SDS011;23489;49.600;6.138;2023-04-25T11:27:31;5.47;;;3.60;;
37645;SDS011;23489;49.600;6.138;2023-04-25T11:29:57;5.82;;;3.70;;
37645;SDS011;23489;49.600;6.138;2023-04-25T11:32:22;5.47;;;3.90;;
37645;SDS011;23489;49.600;6.138;2023-04-25T11:34:48;7.40;;;4.25;;
37645;SDS011;23489;49.600;6.138;2023-04-25T11:39:43;6.22;;;4.15;;
37645;SDS011;23489;49.600;6.138;2023-04-25T11:44:37;8.85;;;3.78;;
37645;SDS011;23489;49.600;6.138;2023-04-25T11:47:03;5.60;;;3.88;;
37645;SDS011;23489;49.600;6.138;2023-04-25T11:51:57;6.72;;;3.78;;
37645;SDS011;23489;49.600;6.138;2023-04-25T11:54:23;6.40;;;4.00;;
37645;SDS011;23489;49.600;6.138;2023-04-25T11:56:48;7.05;;;3.97;;
37645;SDS011;23489;49.600;6.138;2023-04-25T11:59:14;8.07;;;4.28;;
37645;SDS011;23489;49.600;6.138;2023-04-25T12:01:47;8.55;;;3.97;;
37645;SDS011;23489;49.600;6.138;2023-04-25T12:04:21;8.95;;;3.88;;
37645;SDS011;23489;49.600;6.138;2023-04-25T12:06:49;10.55;;;3.65;;
37645;SDS011;23489;49.600;6.138;2023-04-25T12:09:20;8.40;;;4.32;;
37645;SDS011;23489;49.600;6.138;2023-04-25T12:11:55;7.45;;;3.78;;
37645;SDS011;23489;49.600;6.138;2023-04-25T12:14:27;8.15;;;3.80;;
37645;SDS011;23489;49.600;6.138;2023-04-25T12:16:55;7.07;;;4.13;;
37645;SDS011;23489;49.600;6.138;2023-04-25T12:19:22;8.95;;;3.83;;
37645;SDS011;23489;49.600;6.138;2023-04-25T12:21:48;10.02;;;3.85;;
37645;SDS011;23489;49.600;6.138;2023-04-25T12:24:21;6.43;;;3.88;;
37645;SDS011;23489;49.600;6.138;2023-04-25T12:29:24;6.55;;;3.50;;
37645;SDS011;23489;49.600;6.138;2023-04-25T12:31:52;5.95;;;3.90;;
37645;SDS011;23489;49.600;6.138;2023-04-25T12:34:19;7.70;;;3.95;;
37645;SDS011;23489;49.600;6.138;2023-04-25T16:52:28;6.97;;;2.83;;
37645;SDS011;23489;49.600;6.138;2023-04-25T16:54:54;7.90;;;2.90;;
37645;SDS011;23489;49.600;6.138;2023-04-25T16:57:20;6.20;;;2.55;;
37645;SDS011;23489;49.600;6.138;2023-04-25T16:59:46;3.90;;;2.70;;
37645;SDS011;23489;49.600;6.138;2023-04-25T17:02:11;4.63;;;2.80;;
37645;SDS011;23489;49.600;6.138;2023-04-25T17:04:38;3.63;;;2.65;;
37645;SDS011;23489;49.600;6.138;2023-04-25T17:07:04;5.60;;;2.70;;
37645;SDS011;23489;49.600;6.138;2023-04-25T17:09:30;6.75;;;2.88;;
37645;SDS011;23489;49.600;6.138;2023-04-25T17:14:22;4.13;;;2.80;;
37645;SDS011;23489;49.600;6.138;2023-04-25T17:16:48;7.72;;;2.90;;
37645;SDS011;23489;49.600;6.138;2023-04-25T17:19:13;4.13;;;2.70;;
37645;SDS011;23489;49.600;6.138;2023-04-25T17:21:39;9.55;;;3.22;;
37645;SDS011;23489;49.600;6.138;2023-04-25T17:24:05;6.75;;;2.88;;
37645;SDS011;23489;49.600;6.138;2023-04-25T17:26:34;5.32;;;2.67;;
37645;SDS011;23489;49.600;6.138;2023-04-25T17:29:01;6.38;;;3.13;;
37645;SDS011;23489;49.600;6.138;2023-04-25T17:31:26;4.15;;;2.75;;
37645;SDS011;23489;49.600;6.138;2023-04-25T17:33:52;5.97;;;2.92;;
37645;SDS011;23489;49.600;6.138;2023-04-25T17:36:17;5.07;;;2.88;;
37645;SDS011;23489;49.600;6.138;2023-04-25T17:38:43;7.80;;;2.80;;
37645;SDS011;23489;49.600;6.138;2023-04-25T17:58:09;5.88;;;3.03;;
37645;SDS011;23489;49.600;6.138;2023-04-25T18:00:38;6.10;;;3.17;;
37645;SDS011;23489;49.600;6.138;2023-04-25T18:03:04;6.10;;;3.13;;
37645;SDS011;23489;49.600;6.138;2023-04-25T18:05:31;5.00;;;2.90;;
37645;SDS011;23489;49.600;6.138;2023-04-25T18:07:57;9.63;;;3.45;;
37645;SDS011;23489;49.600;6.138;2023-04-25T18:10:23;5.75;;;3.17;;
37645;SDS011;23489;49.600;6.138;2023-04-25T18:12:48;7.00;;;3.72;;
37645;SDS011;23489;49.600;6.138;2023-04-25T18:15:17;24.48;;;5.28;;
37645;SDS011;23489;49.600;6.138;2023-04-25T18:27:29;4.93;;;3.03;;
37645;SDS011;23489;49.600;6.138;2023-04-25T18:29:56;9.73;;;3.10;;
37645;SDS011;23489;49.600;6.138;2023-04-25T18:32:22;6.75;;;3.05;;
37645;SDS011;23489;49.600;6.138;2023-04-25T18:34:47;7.68;;;3.30;;
37645;SDS011;23489;49.600;6.138;2023-04-25T18:37:14;7.63;;;3.10;;
37645;SDS011;23489;49.600;6.138;2023-04-25T18:42:06;3.58;;;2.78;;
37645;SDS011;23489;49.600;6.138;2023-04-25T18:44:35;4.55;;;3.03;;
37645;SDS011;23489;49.600;6.138;2023-04-25T18:47:04;10.15;;;3.42;;
37645;SDS011;23489;49.600;6.138;2023-04-25T18:49:34;7.55;;;3.25;;
37645;SDS011;23489;49.600;6.138;2023-04-25T18:52:01;7.55;;;3.42;;
37645;SDS011;23489;49.600;6.138;2023-04-25T18:54:27;8.70;;;3.75;;
37645;SDS011;23489;49.600;6.138;2023-04-25T18:56:53;6.47;;;3.70;;
37645;SDS011;23489;49.600;6.138;2023-04-25T18:59:21;9.13;;;3.45;;
37645;SDS011;23489;49.600;6.138;2023-04-25T19:01:47;5.03;;;3.17;;
37645;SDS011;23489;49.600;6.138;2023-04-25T19:04:13;5.70;;;3.30;;
37645;SDS011;23489;49.600;6.138;2023-04-25T19:06:39;4.80;;;3.25;;
37645;SDS011;23489;49.600;6.138;2023-04-25T19:09:05;5.10;;;3.17;;
37645;SDS011;23489;49.600;6.138;2023-04-25T19:11:32;8.25;;;3.15;;
37645;SDS011;23489;49.600;6.138;2023-04-25T19:13:58;5.00;;;2.90;;
37645;SDS011;23489;49.600;6.138;2023-04-25T19:16:25;5.75;;;3.05;;
37645;SDS011;23489;49.600;6.138;2023-04-25T19:18:52;9.55;;;3.50;;
37645;SDS011;23489;49.600;6.138;2023-04-25T19:21:19;5.82;;;3.00;;
37645;SDS011;23489;49.600;6.138;2023-04-25T19:23:45;5.85;;;3.30;;
37645;SDS011;23489;49.600;6.138;2023-04-25T19:26:11;6.60;;;3.50;;
37645;SDS011;23489;49.600;6.138;2023-04-25T19:28:37;7.60;;;3.38;;
37645;SDS011;23489;49.600;6.138;2023-04-25T19:31:03;9.32;;;4.03;;
37645;SDS011;23489;49.600;6.138;2023-04-25T19:33:29;7.90;;;3.47;;
37645;SDS011;23489;49.600;6.138;2023-04-25T19:35:54;6.40;;;3.65;;
37645;SDS011;23489;49.600;6.138;2023-04-25T19:38:20;6.55;;;3.47;;
37645;SDS011;23489;49.600;6.138;2023-04-25T19:40:46;12.50;;;3.88;;
37645;SDS011;23489;49.600;6.138;2023-04-25T19:43:12;8.70;;;3.40;;
37645;SDS011;23489;49.600;6.138;2023-04-25T19:45:38;5.75;;;3.35;;
37645;SDS011;23489;49.600;6.138;2023-04-25T19:48:04;5.95;;;3.28;;
37645;SDS011;23489;49.600;6.138;2023-04-25T19:50:30;7.65;;;3.45;;
37645;SDS011;23489;49.600;6.138;2023-04-25T19:52:56;7.85;;;3.80;;
37645;SDS011;23489;49.600;6.138;2023-04-25T19:55:22;6.95;;;3.63;;
37645;SDS011;23489;49.600;6.138;2023-04-25T19:57:47;5.38;;;3.80;;
37645;SDS011;23489;49.600;6.138;2023-04-25T20:02:40;10.35;;;4.68;;
37645;SDS011;23489;49.600;6.138;2023-04-25T20:05:09;7.43;;;4.25;;
37645;SDS011;23489;49.600;6.138;2023-04-25T20:07:36;6.60;;;3.90;;
37645;SDS011;23489;49.600;6.138;2023-04-25T20:10:03;10.45;;;4.43;;
37645;SDS011;23489;49.600;6.138;2023-04-25T20:12:30;8.07;;;4.25;;
37645;SDS011;23489;49.600;6.138;2023-04-25T20:14:57;8.95;;;4.18;;
37645;SDS011;23489;49.600;6.138;2023-04-25T20:17:22;5.10;;;3.50;;
37645;SDS011;23489;49.600;6.138;2023-04-25T20:19:48;6.55;;;3.80;;
37645;SDS011;23489;49.600;6.138;2023-04-25T20:22:14;7.90;;;4.40;;
37645;SDS011;23489;49.600;6.138;2023-04-25T20:24:40;9.10;;;4.05;;
37645;SDS011;23489;49.600;6.138;2023-04-25T20:27:05;7.43;;;4.47;;
37645;SDS011;23489;49.600;6.138;2023-04-25T20:29:31;7.78;;;4.15;;
37645;SDS011;23489;49.600;6.138;2023-04-25T20:31:57;7.97;;;4.13;;
37645;SDS011;23489;49.600;6.138;2023-04-25T20:34:24;7.82;;;4.53;;
37645;SDS011;23489;49.600;6.138;2023-04-25T20:36:50;6.47;;;3.67;;
37645;SDS011;23489;49.600;6.138;2023-04-25T20:39:17;7.25;;;3.92;;
37645;SDS011;23489;49.600;6.138;2023-04-25T20:41:43;5.53;;;3.58;;
37645;SDS011;23489;49.600;6.138;2023-04-25T20:44:09;9.23;;;4.25;;
37645;SDS011;23489;49.600;6.138;2023-04-25T20:46:36;8.45;;;4.05;;